KAKR/AKR METAR and TAF weather

Enter ICAO airport designator
Station Type Date Time Source
KAKR METAR 2019/04/22 19:54 UTC NOAA

KAKR 221954Z AUTO 00000KT 10SM CLR 20/07 A3015 RMK AO2 SLP211 T02000067 $


Station Type Date Time Source
KAKR Decoded METAR 2019/04/22 19:54 UTC NOAA

AKRON FULTON INTERNATIONAL, OH, United States (KAKR) 41-02N 081-28W 363M
Apr 22, 2019 - 03:54 PM EDT / 2019.04.22 1954 UTC
Wind: Calm:0
Visibility: 10 mile(s):0
Sky conditions: clear
Temperature: 68.0 F (20.0 C)
Dew Point: 44.1 F (6.7 C)
Relative Humidity: 41%
Pressure (altimeter): 30.15 in. Hg (1020 hPa)
ob: KAKR 221954Z AUTO 00000KT 10SM CLR 20/07 A3015 RMK AO2 SLP211 T02000067
cycle: 20

Station Type Date Time Source
KAKR TAF UTC NOAA

Error!

Example: see airport list